createdAt,value
2019-02-11T00:00:35.036Z,1.63
2019-02-11T00:03:03.528Z,1.50
2019-02-11T00:05:31.693Z,1.47
2019-02-11T00:07:59.840Z,1.43
2019-02-11T00:10:28.477Z,1.17
2019-02-11T00:12:56.567Z,0.60
2019-02-11T00:15:24.716Z,0.90
2019-02-11T00:17:52.826Z,1.20
2019-02-11T00:20:20.975Z,0.87
2019-02-11T00:22:49.089Z,0.80
2019-02-11T00:25:17.633Z,0.70
2019-02-11T00:27:45.805Z,0.80
2019-02-11T00:30:14.170Z,0.63
2019-02-11T00:32:42.288Z,1.17
2019-02-11T00:35:10.827Z,0.70
2019-02-11T00:37:38.919Z,0.60
2019-02-11T00:40:07.775Z,0.80
2019-02-11T00:42:35.881Z,1.10
2019-02-11T00:45:04.474Z,0.53
2019-02-11T00:47:32.978Z,0.80
2019-02-11T00:50:01.137Z,0.60
2019-02-11T00:52:29.646Z,0.90
2019-02-11T00:54:57.849Z,0.60
2019-02-11T00:57:26.091Z,0.40
2019-02-11T00:59:54.242Z,0.60
2019-02-11T01:02:22.403Z,0.60
2019-02-11T01:04:50.720Z,0.50
2019-02-11T01:07:18.822Z,0.60
2019-02-11T01:09:47.088Z,0.63
2019-02-11T01:12:15.197Z,0.50
2019-02-11T01:14:43.339Z,0.77
2019-02-11T01:17:12.061Z,0.50
2019-02-11T01:19:40.202Z,0.67
2019-02-11T01:22:08.406Z,0.37
2019-02-11T01:24:36.570Z,0.60
2019-02-11T01:27:04.767Z,0.40
2019-02-11T01:29:32.853Z,0.57
2019-02-11T01:32:01.001Z,0.83
2019-02-11T01:34:29.623Z,0.30
2019-02-11T01:36:58.155Z,0.40
2019-02-11T01:39:26.749Z,0.53
2019-02-11T01:41:54.906Z,0.57
2019-02-11T01:44:23.003Z,0.40
2019-02-11T01:46:51.628Z,0.50
2019-02-11T01:49:19.744Z,0.60
2019-02-11T01:51:47.926Z,0.53
2019-02-11T01:54:16.024Z,0.50
2019-02-11T01:56:44.187Z,0.60
2019-02-11T01:59:12.304Z,0.30
2019-02-11T02:01:40.460Z,0.60
2019-02-11T02:04:09.860Z,0.60
2019-02-11T02:06:38.007Z,0.50
2019-02-11T02:09:06.977Z,0.40
2019-02-11T02:11:35.146Z,0.90
2019-02-11T02:14:03.349Z,0.40
2019-02-11T02:16:31.489Z,0.50
2019-02-11T02:19:00.129Z,0.77
2019-02-11T02:21:28.669Z,0.40
2019-02-11T02:23:56.894Z,0.40
2019-02-11T02:26:25.035Z,0.30
2019-02-11T02:28:53.250Z,0.50
2019-02-11T02:31:21.390Z,0.40
2019-02-11T02:33:49.487Z,0.60
2019-02-11T02:36:17.633Z,0.60
2019-02-11T02:38:45.737Z,0.70
2019-02-11T02:41:13.905Z,0.73
2019-02-11T02:43:42.119Z,1.00
2019-02-11T02:46:10.438Z,1.20
2019-02-11T02:48:38.642Z,0.60
2019-02-11T02:51:07.225Z,0.60
2019-02-11T02:53:35.338Z,0.30
2019-02-11T02:56:03.701Z,0.37
2019-02-11T02:58:31.806Z,0.43
2019-02-11T03:01:00.043Z,0.60
2019-02-11T03:03:28.182Z,0.30
2019-02-11T03:05:56.394Z,1.00
2019-02-11T03:08:24.495Z,0.27
2019-02-11T03:10:52.747Z,0.40
2019-02-11T03:13:20.845Z,0.57
2019-02-11T03:15:48.948Z,0.83
2019-02-11T03:18:17.466Z,0.40
2019-02-11T03:20:45.570Z,0.40
2019-02-11T03:23:13.818Z,0.40
2019-02-11T03:25:42.348Z,0.20
2019-02-11T03:28:10.487Z,0.30
2019-02-11T03:30:38.695Z,0.43
2019-02-11T03:33:06.836Z,0.30
2019-02-11T03:35:34.935Z,0.40
2019-02-11T03:38:03.087Z,0.50
2019-02-11T03:40:31.343Z,0.93
2019-02-11T03:42:59.490Z,0.23
2019-02-11T03:45:28.134Z,0.57
2019-02-11T03:47:56.399Z,0.40
2019-02-11T03:50:24.678Z,0.37
2019-02-11T03:52:52.894Z,0.50
2019-02-11T03:55:21.191Z,0.60
2019-02-11T03:57:49.437Z,0.40
2019-02-11T04:00:17.771Z,0.40
2019-02-11T04:03:04.159Z,0.40
2019-02-11T04:05:32.808Z,0.40
2019-02-11T04:08:01.106Z,0.33
2019-02-11T04:10:29.740Z,0.50
2019-02-11T04:12:57.935Z,0.33
2019-02-11T04:15:26.090Z,0.30
2019-02-11T04:17:54.278Z,0.50
2019-02-11T04:20:22.549Z,0.30
2019-02-11T04:22:51.143Z,0.60
2019-02-11T04:25:19.299Z,0.33
2019-02-11T04:27:47.684Z,0.50
2019-02-11T04:30:15.956Z,0.50
2019-02-11T04:32:44.152Z,0.80
2019-02-11T04:35:12.554Z,0.60
2019-02-11T04:37:40.756Z,0.33
2019-02-11T04:40:09.861Z,0.50
2019-02-11T04:42:38.475Z,0.80
2019-02-11T04:45:07.813Z,0.40
2019-02-11T04:47:36.016Z,0.30
2019-02-11T04:50:05.284Z,0.30
2019-02-11T04:52:33.578Z,0.60
2019-02-11T04:55:01.735Z,0.30
2019-02-11T04:57:30.034Z,0.40
2019-02-11T04:59:58.271Z,0.60
2019-02-11T05:02:26.500Z,0.40
2019-02-11T05:04:55.130Z,0.40
2019-02-11T05:07:23.602Z,0.70
2019-02-11T05:09:52.183Z,0.40
2019-02-11T05:12:20.832Z,0.37
2019-02-11T05:14:49.001Z,0.50
2019-02-11T05:17:17.314Z,0.30
2019-02-11T05:19:45.498Z,0.40
2019-02-11T05:22:13.688Z,0.30
2019-02-11T05:24:41.830Z,0.30
2019-02-11T05:27:10.121Z,0.30
2019-02-11T05:29:38.318Z,0.60
2019-02-11T05:32:06.470Z,0.30
2019-02-11T05:34:34.638Z,0.80
2019-02-11T05:37:03.723Z,0.30
2019-02-11T05:39:32.584Z,0.37
2019-02-11T05:42:00.705Z,0.47
2019-02-11T05:44:28.894Z,0.30
2019-02-11T05:46:57.774Z,0.50
2019-02-11T05:49:26.055Z,0.30
2019-02-11T05:51:54.622Z,0.40
2019-02-11T05:54:22.903Z,0.30
2019-02-11T05:56:51.736Z,0.40
2019-02-11T05:59:20.395Z,0.53
2019-02-11T06:01:48.516Z,0.37
2019-02-11T06:04:17.192Z,0.40
2019-02-11T06:06:45.924Z,0.50
2019-02-11T06:09:14.785Z,0.50
2019-02-11T06:11:43.258Z,0.50
2019-02-11T06:14:11.448Z,0.37
2019-02-11T06:16:39.563Z,0.90
2019-02-11T06:19:08.067Z,0.60
2019-02-11T06:21:36.192Z,0.50
2019-02-11T06:24:05.335Z,0.57
2019-02-11T06:26:34.180Z,0.40
2019-02-11T06:29:02.716Z,1.27
2019-02-11T06:31:31.153Z,0.60
2019-02-11T06:34:00.160Z,0.20
2019-02-11T06:36:29.487Z,0.43
2019-02-11T06:38:57.663Z,0.70
2019-02-11T06:41:26.896Z,0.40
2019-02-11T06:43:55.248Z,0.40
2019-02-11T06:46:23.497Z,0.50
2019-02-11T06:48:51.678Z,0.30
2019-02-11T06:51:19.799Z,0.40
2019-02-11T06:53:48.151Z,0.87
2019-02-11T06:56:16.670Z,0.20
2019-02-11T06:58:45.304Z,0.27
2019-02-11T07:01:14.247Z,0.40
2019-02-11T07:03:42.827Z,0.20
2019-02-11T07:06:11.107Z,0.50
2019-02-11T07:08:39.464Z,0.40
2019-02-11T07:11:07.587Z,0.60
2019-02-11T07:13:36.587Z,0.20
2019-02-11T07:16:05.489Z,0.20
2019-02-11T07:18:37.054Z,0.37
2019-02-11T07:21:04.940Z,2.90
2019-02-11T07:23:33.248Z,0.90
2019-02-11T07:26:01.526Z,0.40
2019-02-11T07:28:30.242Z,0.33
2019-02-11T07:30:59.519Z,0.30
2019-02-11T07:33:27.808Z,0.30
2019-02-11T07:35:55.964Z,0.20
2019-02-11T07:38:24.540Z,0.30
2019-02-11T07:40:52.732Z,0.43
2019-02-11T07:43:43.168Z,0.47
2019-02-11T07:46:33.332Z,0.53
2019-02-11T07:49:01.535Z,0.20
2019-02-11T07:51:29.705Z,0.60
2019-02-11T07:53:58.337Z,0.57
2019-02-11T07:56:27.725Z,0.20
2019-02-11T07:58:56.060Z,0.23
2019-02-11T08:01:24.325Z,0.37
2019-02-11T08:03:52.531Z,0.40
2019-02-11T08:06:20.741Z,0.53
2019-02-11T08:08:48.905Z,0.20
2019-02-11T08:11:17.156Z,0.43
2019-02-11T08:13:45.371Z,0.30
2019-02-11T08:16:13.564Z,0.50
2019-02-11T08:18:58.348Z,0.40
2019-02-11T08:21:26.620Z,0.30
2019-02-11T08:23:54.784Z,0.30
2019-02-11T08:26:23.563Z,0.30
2019-02-11T08:28:51.724Z,0.33
2019-02-11T08:31:20.138Z,0.10
2019-02-11T08:33:50.620Z,0.20
2019-02-11T08:36:18.889Z,0.20
2019-02-11T08:38:47.054Z,0.30
2019-02-11T08:41:20.257Z,0.30
2019-02-11T08:43:48.852Z,0.30
2019-02-11T08:46:19.903Z,0.20
2019-02-11T08:48:48.358Z,0.10
2019-02-11T08:51:16.676Z,0.17
2019-02-11T08:53:46.260Z,0.30
2019-02-11T08:56:14.595Z,0.10
2019-02-11T08:58:45.297Z,0.20
2019-02-11T09:01:13.808Z,0.20
2019-02-11T09:03:42.068Z,0.20
2019-02-11T09:06:10.500Z,0.10
2019-02-11T09:08:38.696Z,0.20
2019-02-11T09:11:07.016Z,0.20
2019-02-11T09:13:35.372Z,0.13
2019-02-11T09:16:03.772Z,0.10
2019-02-11T09:18:33.308Z,0.20
2019-02-11T09:21:01.708Z,0.10
2019-02-11T09:23:29.856Z,0.17
2019-02-11T09:26:00.720Z,0.10
2019-02-11T09:28:28.995Z,0.17
2019-02-11T09:30:57.657Z,0.20
2019-02-11T09:33:26.288Z,0.10
2019-02-11T09:35:54.539Z,0.10
2019-02-11T09:38:22.952Z,0.33
2019-02-11T09:40:51.512Z,0.20
2019-02-11T09:43:19.813Z,0.23
2019-02-11T09:45:48.947Z,0.20
2019-02-11T09:48:17.239Z,0.20
2019-02-11T09:50:48.311Z,0.10
2019-02-11T09:53:17.908Z,0.10
2019-02-11T09:55:46.167Z,0.50
2019-02-11T09:58:14.476Z,0.10
2019-02-11T10:00:42.880Z,0.10
2019-02-11T10:03:11.155Z,0.20
2019-02-11T10:05:39.448Z,0.33
2019-02-11T10:08:08.256Z,0.23
2019-02-11T10:10:36.434Z,0.10
2019-02-11T10:13:04.744Z,0.30
2019-02-11T10:15:33.028Z,0.30
2019-02-11T10:18:01.446Z,0.20
2019-02-11T10:20:30.225Z,0.30
2019-02-11T10:22:58.524Z,0.20
2019-02-11T10:25:27.460Z,0.10
2019-02-11T10:27:58.985Z,0.30
2019-02-11T10:30:27.227Z,0.40
2019-02-11T10:32:55.627Z,0.27
2019-02-11T10:35:23.979Z,0.40
2019-02-11T10:37:54.326Z,0.13
2019-02-11T10:40:22.668Z,0.20
2019-02-11T10:42:51.092Z,0.30
2019-02-11T10:45:19.359Z,0.10
2019-02-11T10:47:47.768Z,0.10
2019-02-11T10:50:16.386Z,0.20
2019-02-11T10:52:47.492Z,1.40
2019-02-11T10:55:16.207Z,0.30
2019-02-11T10:57:45.314Z,0.40
2019-02-11T11:00:16.391Z,0.40
2019-02-11T11:02:45.509Z,0.20
2019-02-11T11:05:14.665Z,0.90
2019-02-11T11:07:43.823Z,0.20
2019-02-11T11:10:21.455Z,0.20
2019-02-11T11:12:50.352Z,0.20
2019-02-11T11:15:20.785Z,0.30
2019-02-11T11:17:49.757Z,0.30
2019-02-11T11:20:20.008Z,0.27
2019-02-11T11:22:48.347Z,0.40
2019-02-11T11:25:17.169Z,0.20
2019-02-11T11:27:45.531Z,0.20
2019-02-11T11:30:15.560Z,0.20
2019-02-11T11:32:44.010Z,0.30
2019-02-11T11:35:14.922Z,0.20
2019-02-11T11:37:43.292Z,0.17
2019-02-11T11:40:13.269Z,0.20
2019-02-11T11:42:41.525Z,0.20
2019-02-11T11:45:12.284Z,0.30
2019-02-11T11:47:40.615Z,0.30
2019-02-11T11:50:09.599Z,0.20
2019-02-11T11:52:38.551Z,0.20
2019-02-11T11:55:09.222Z,0.30
2019-02-11T11:57:37.581Z,0.33
2019-02-11T12:00:15.673Z,0.30
2019-02-11T12:03:00.603Z,0.30
2019-02-11T12:05:15.927Z,0.30
2019-02-11T12:07:44.267Z,0.40
2019-02-11T12:10:12.748Z,0.20
2019-02-11T12:12:41.101Z,0.30
2019-02-11T12:15:12.120Z,0.33
2019-02-11T12:17:40.521Z,0.30
2019-02-11T12:20:10.412Z,0.20
2019-02-11T12:22:38.741Z,0.23
2019-02-11T12:25:09.085Z,0.20
2019-02-11T12:27:37.319Z,0.40
2019-02-11T12:30:07.557Z,0.30
2019-02-11T12:32:36.204Z,0.20
2019-02-11T12:35:05.312Z,0.17
2019-02-11T12:37:33.456Z,0.30
2019-02-11T12:40:01.784Z,0.30
2019-02-11T12:42:30.030Z,0.20
2019-02-11T12:44:58.619Z,0.13
2019-02-11T12:47:27.736Z,0.23
2019-02-11T12:49:58.903Z,0.30
2019-02-11T12:52:27.081Z,0.30
2019-02-11T12:54:55.794Z,0.20
2019-02-11T12:57:24.167Z,0.20
2019-02-11T12:59:52.559Z,0.33
2019-02-11T13:02:20.919Z,0.53
2019-02-11T13:04:49.174Z,0.50
2019-02-11T13:07:17.375Z,0.10
2019-02-11T13:09:45.595Z,0.17
2019-02-11T13:12:13.912Z,0.27
2019-02-11T13:14:42.071Z,0.30
2019-02-11T13:17:15.637Z,0.20
2019-02-11T13:19:40.246Z,0.20
2019-02-11T13:22:09.641Z,0.27
2019-02-11T13:24:37.807Z,0.20
2019-02-11T13:27:06.750Z,0.30
2019-02-11T13:29:35.182Z,0.20
2019-02-11T13:32:03.484Z,0.40
2019-02-11T13:34:31.737Z,0.30
2019-02-11T13:36:59.935Z,0.20
2019-02-11T13:39:28.197Z,0.30
2019-02-11T13:41:56.866Z,0.20
2019-02-11T13:44:29.473Z,0.30
2019-02-11T13:46:57.775Z,0.53
2019-02-11T13:49:26.602Z,0.40
2019-02-11T13:51:55.308Z,0.37
2019-02-11T13:54:23.621Z,0.20
2019-02-11T13:56:53.047Z,0.30
2019-02-11T13:59:21.284Z,0.17
2019-02-11T14:01:52.172Z,0.20
2019-02-11T14:04:22.953Z,0.30
2019-02-11T14:06:55.076Z,0.50
2019-02-11T14:09:25.926Z,0.20
2019-02-11T14:11:54.356Z,0.20
2019-02-11T14:14:28.115Z,0.30
2019-02-11T14:16:56.560Z,0.30
2019-02-11T14:19:30.495Z,0.30
2019-02-11T14:21:58.842Z,0.20
2019-02-11T14:24:27.000Z,0.30
2019-02-11T14:26:55.451Z,0.40
2019-02-11T14:29:24.082Z,0.20
2019-02-11T14:31:52.227Z,0.23
2019-02-11T14:34:20.679Z,0.50
2019-02-11T14:36:49.213Z,0.30
2019-02-11T14:39:18.054Z,0.30
2019-02-11T14:41:46.217Z,0.40
2019-02-11T14:44:16.395Z,0.50
2019-02-11T14:46:45.054Z,0.20
2019-02-11T14:49:13.243Z,0.40
2019-02-11T14:51:41.776Z,0.20
2019-02-11T14:54:10.113Z,0.37
2019-02-11T14:56:38.346Z,0.30
2019-02-11T14:59:06.986Z,0.30
2019-02-11T15:01:35.185Z,0.10
2019-02-11T15:04:03.481Z,0.40
2019-02-11T15:06:33.952Z,0.40
2019-02-11T15:09:02.265Z,0.40
2019-02-11T15:11:30.442Z,0.27
2019-02-11T15:14:00.058Z,0.40
2019-02-11T15:16:28.547Z,0.40
2019-02-11T15:18:57.751Z,0.30
2019-02-11T15:21:26.600Z,0.87
2019-02-11T15:23:57.092Z,0.30
2019-02-11T15:26:25.894Z,0.23
2019-02-11T15:28:56.047Z,0.20
2019-02-11T15:31:24.530Z,0.20
2019-02-11T15:33:52.691Z,0.30
2019-02-11T15:36:20.798Z,0.30
2019-02-11T15:38:48.950Z,0.17
2019-02-11T15:41:17.150Z,0.20
2019-02-11T15:43:47.473Z,0.20
2019-02-11T15:46:15.570Z,0.20
2019-02-11T15:48:43.728Z,0.40
2019-02-11T15:51:13.535Z,0.30
2019-02-11T15:53:42.319Z,0.70
2019-02-11T15:56:10.426Z,0.30
2019-02-11T15:58:39.096Z,0.30
2019-02-11T16:01:07.307Z,0.30
2019-02-11T16:03:36.058Z,0.30
2019-02-11T16:06:10.334Z,0.30
2019-02-11T16:08:34.375Z,0.37
2019-02-11T16:11:02.747Z,0.20
2019-02-11T16:13:31.010Z,0.20
2019-02-11T16:15:59.129Z,0.23
2019-02-11T16:18:27.656Z,0.50
2019-02-11T16:20:56.975Z,0.30
2019-02-11T16:23:25.777Z,0.43
2019-02-11T16:25:55.090Z,0.20
2019-02-11T16:28:23.428Z,0.37
2019-02-11T16:30:51.960Z,0.50
2019-02-11T16:33:20.083Z,0.30
2019-02-11T16:35:48.270Z,0.20
2019-02-11T16:38:18.609Z,0.30
2019-02-11T16:40:49.330Z,0.60
2019-02-11T16:43:18.371Z,0.50
2019-02-11T16:45:46.729Z,0.27
2019-02-11T16:48:14.837Z,0.40
2019-02-11T16:50:43.002Z,0.30
2019-02-11T16:53:11.118Z,0.30
2019-02-11T16:55:39.377Z,0.37
2019-02-11T16:58:07.599Z,0.60
2019-02-11T17:00:46.346Z,0.50
2019-02-11T17:03:14.559Z,0.50
2019-02-11T17:05:45.283Z,0.50
2019-02-11T17:08:14.755Z,0.40
2019-02-11T17:10:43.127Z,0.50
2019-02-11T17:13:11.550Z,0.60
2019-02-11T17:15:40.774Z,1.00
2019-02-11T17:18:08.930Z,0.83
2019-02-11T17:20:37.091Z,0.90
2019-02-11T17:23:05.342Z,1.00
2019-02-11T17:25:34.996Z,0.87
2019-02-11T17:28:03.207Z,0.73
2019-02-11T17:30:31.821Z,0.90
2019-02-11T17:33:00.040Z,0.50
2019-02-11T17:35:28.182Z,0.87
2019-02-11T17:37:56.574Z,1.03
2019-02-11T17:40:25.106Z,1.10
2019-02-11T17:42:53.211Z,0.50
2019-02-11T17:45:23.734Z,0.50
2019-02-11T17:47:52.042Z,0.73
2019-02-11T17:50:20.290Z,0.80
2019-02-11T17:52:51.190Z,2.10
2019-02-11T17:55:19.877Z,0.80
2019-02-11T17:57:48.087Z,0.60
2019-02-11T18:00:25.274Z,0.60
2019-02-11T18:02:53.570Z,0.63
2019-02-11T18:05:21.823Z,0.40
2019-02-11T18:07:49.978Z,0.60
2019-02-11T18:10:18.241Z,0.40
2019-02-11T18:12:46.341Z,0.60
2019-02-11T18:15:14.598Z,0.53
2019-02-11T18:17:43.098Z,0.50
2019-02-11T18:20:11.397Z,0.47
2019-02-11T18:22:41.465Z,0.50
2019-02-11T18:25:09.870Z,0.50
2019-02-11T18:27:38.079Z,0.40
2019-02-11T18:30:06.970Z,0.60
2019-02-11T18:32:35.172Z,0.70
2019-02-11T18:35:04.178Z,0.60
2019-02-11T18:37:32.266Z,0.60
2019-02-11T18:40:02.692Z,0.50
2019-02-11T18:42:30.806Z,0.70
2019-02-11T18:44:58.930Z,0.53
2019-02-11T18:47:30.841Z,0.50
2019-02-11T18:50:00.582Z,0.93
2019-02-11T18:52:28.856Z,0.53
2019-02-11T18:54:59.510Z,1.87
2019-02-11T18:57:28.262Z,1.10
2019-02-11T19:00:06.221Z,0.40
2019-02-11T19:02:35.005Z,0.60
2019-02-11T19:05:03.308Z,0.80
2019-02-11T19:07:31.607Z,0.87
2019-02-11T19:09:59.748Z,0.70
2019-02-11T19:12:28.097Z,0.80
2019-02-11T19:14:56.551Z,0.43
2019-02-11T19:17:25.107Z,0.60
2019-02-11T19:19:53.715Z,1.27
2019-02-11T19:22:22.353Z,0.40
2019-02-11T19:24:50.682Z,0.30
2019-02-11T19:27:18.969Z,0.50
2019-02-11T19:29:47.128Z,0.40
2019-02-11T19:32:15.281Z,0.60
2019-02-11T19:34:43.387Z,0.60
2019-02-11T19:37:12.081Z,0.67
2019-02-11T19:39:40.293Z,1.00
2019-02-11T19:42:08.547Z,0.53
2019-02-11T19:44:36.634Z,0.57
2019-02-11T19:47:05.746Z,1.10
2019-02-11T19:49:34.058Z,1.43
2019-02-11T19:52:02.210Z,2.30
2019-02-11T19:54:30.310Z,3.57
2019-02-11T19:56:59.254Z,3.23
2019-02-11T19:59:27.465Z,3.13
2019-02-11T20:01:55.662Z,1.77
2019-02-11T20:04:23.862Z,0.90
2019-02-11T20:06:52.019Z,0.60
2019-02-11T20:09:20.272Z,0.60
2019-02-11T20:11:48.486Z,0.50
2019-02-11T20:14:16.690Z,0.47
2019-02-11T20:16:44.846Z,0.53
2019-02-11T20:19:13.067Z,0.53
2019-02-11T20:21:41.339Z,0.40
2019-02-11T20:24:09.437Z,0.50
2019-02-11T20:26:37.684Z,0.90
2019-02-11T20:29:05.889Z,0.50
2019-02-11T20:31:34.034Z,0.63
2019-02-11T20:34:02.135Z,0.40
2019-02-11T20:36:30.286Z,0.50
2019-02-11T20:38:59.401Z,0.20
2019-02-11T20:41:27.559Z,0.43
2019-02-11T20:43:55.750Z,0.40
2019-02-11T20:46:23.862Z,0.40
2019-02-11T20:48:52.495Z,0.40
2019-02-11T20:51:20.596Z,0.30
2019-02-11T20:53:48.737Z,0.30
2019-02-11T20:56:17.256Z,0.50
2019-02-11T20:58:45.503Z,0.30
2019-02-11T21:01:13.700Z,0.30
2019-02-11T21:03:42.238Z,0.40
2019-02-11T21:06:10.535Z,0.37
2019-02-11T21:08:38.688Z,0.30
2019-02-11T21:11:06.941Z,0.37
2019-02-11T21:13:35.078Z,0.30
2019-02-11T21:16:03.390Z,0.30
2019-02-11T21:18:31.536Z,0.30
2019-02-11T21:20:59.628Z,0.40
2019-02-11T21:23:28.163Z,0.40
2019-02-11T21:25:56.362Z,0.60
2019-02-11T21:28:24.518Z,1.50
2019-02-11T21:30:52.760Z,0.93
2019-02-11T21:33:21.012Z,1.13
2019-02-11T21:35:49.210Z,1.13
2019-02-11T21:38:17.806Z,0.93
2019-02-11T21:40:45.893Z,2.43
2019-02-11T21:43:14.163Z,1.90
2019-02-11T21:45:42.366Z,2.07
2019-02-11T21:48:10.941Z,1.77
2019-02-11T21:50:39.033Z,1.00
2019-02-11T21:53:07.229Z,0.80
2019-02-11T21:55:36.344Z,1.83
2019-02-11T21:58:04.558Z,1.70
2019-02-11T22:00:32.859Z,3.50
2019-02-11T22:03:01.021Z,2.40
2019-02-11T22:05:29.116Z,2.20
2019-02-11T22:07:57.278Z,1.60
2019-02-11T22:10:25.775Z,1.13
2019-02-11T22:12:53.975Z,1.23
2019-02-11T22:15:22.116Z,0.93
2019-02-11T22:17:50.314Z,1.07
2019-02-11T22:20:18.662Z,1.40
2019-02-11T22:22:47.314Z,1.67
2019-02-11T22:25:15.510Z,0.53
2019-02-11T22:27:44.355Z,0.60
2019-02-11T22:30:14.734Z,0.90
2019-02-11T22:32:43.427Z,0.70
2019-02-11T22:35:11.750Z,0.80
2019-02-11T22:37:40.384Z,0.67
2019-02-11T22:40:09.143Z,1.10
2019-02-11T22:42:37.491Z,1.30
2019-02-11T22:45:06.923Z,1.57
2019-02-11T22:47:35.031Z,8.77
2019-02-11T22:50:03.845Z,1.93
2019-02-11T22:52:31.955Z,0.80
2019-02-11T22:55:00.523Z,0.50
2019-02-11T22:57:28.618Z,0.70
2019-02-11T22:59:56.767Z,0.60
2019-02-11T23:02:25.118Z,0.47
2019-02-11T23:04:53.266Z,0.40
2019-02-11T23:07:21.365Z,0.50
2019-02-11T23:09:49.955Z,0.67
2019-02-11T23:12:18.133Z,0.40
2019-02-11T23:14:46.374Z,2.80
2019-02-11T23:17:14.478Z,0.90
2019-02-11T23:19:43.333Z,0.67
2019-02-11T23:22:11.533Z,0.40
2019-02-11T23:24:39.694Z,1.63
2019-02-11T23:27:07.794Z,4.43
2019-02-11T23:29:35.958Z,4.37
2019-02-11T23:32:04.365Z,4.77
2019-02-11T23:34:33.026Z,5.47
2019-02-11T23:37:01.314Z,2.60
2019-02-11T23:39:29.541Z,1.20
2019-02-11T23:41:57.646Z,0.40
2019-02-11T23:44:25.802Z,0.37
2019-02-11T23:46:53.902Z,0.47
2019-02-11T23:49:22.063Z,1.50
2019-02-11T23:51:50.156Z,0.93
2019-02-11T23:54:18.303Z,1.13
2019-02-11T23:56:46.979Z,1.30
2019-02-11T23:59:15.579Z,1.13
